Ever Ursula — 3FCB9 — position and weather

sailwx.info

Track history (hours):
 
Tides and Currents Weather Stations Pressure Air Temp Water Temp Dewpoint Dewpoint Depression Visibility Wind Speed Wind Dir Waves Ship Positions

Ever Ursula

Last reported at 2014-Sep-21 18:12 UTC. Time now 2014-Sep-22 10:14 UTC.
Position N 29°42' E 122°54'.

Type: Ship (hazmat cat D). MMSI: 357737000.

Date/timePositionNaut miles runAvg speedWind from/ knotsBaromVisibWave heightAir tempDewpointWater temp
2014-Sep-21 18:12N 29°42' E 122°54'1117.6
2014-Sep-21 17:33N 29°42' E 122°40'1717.4
2014-Sep-21 16:33N 29°44' E 122°21'1514.7
2014-Sep-21 15:33N 29°55' E 122°10'7 6.5
2014-Sep-21 14:33N 29°54' E 122°02'0 0.0
2014-Sep-21 12:21N 29°54' E 122°02'0 0.1
2014-Sep-21 11:27N 29°54' E 122°02'0 0.1
2014-Sep-21 10:27N 29°54' E 122°02'0 0.0
2014-Sep-21 08:06N 29°54' E 122°02'0 0.0
2014-Sep-21 07:18N 29°54' E 122°02'0 0.0
2014-Sep-21 06:24N 29°54' E 122°02'0 0.0
2014-Sep-21 03:18N 29°54' E 122°02'0 0.0
2014-Sep-21 02:30N 29°54' E 122°02'0 0.0
2014-Sep-20 23:33N 29°54' E 122°02'8 8.3
2014-Sep-20 22:33N 29°52' E 122°12'1010.4
2014-Sep-20 21:33N 29°45' E 122°20'7 6.6
2014-Sep-20 20:31N 29°44' E 122°27'1111.7
2014-Sep-20 19:33N 29°48' E 122°40'3115.5
2014-Sep-20 17:32N 30°07' E 123°08'  
2014-Sep-18 02:33N 35°57' E 120°37'1514.7
2014-Sep-18 01:33N 36°01' E 120°19'5 0.2
2014-Sep-17 03:33N 36°01' E 120°13'10 9.6
2014-Sep-17 02:33N 36°01' E 120°25'1413.4
2014-Sep-17 01:33N 35°57' E 120°42'9718.7
2014-Sep-16 20:21N 36°30' E 122°35'1719.6
2014-Sep-16 19:30N 36°46' E 122°41'1818.8
2014-Sep-16 18:33N 37°03' E 122°47'1919.1
2014-Sep-16 17:33N 37°22' E 122°47'1818.3
2014-Sep-16 16:33N 37°39' E 122°39'2119.3
2014-Sep-16 15:28N 37°58' E 122°27'4419.7
2014-Sep-16 13:14N 38°39' E 122°05'1816.9
2014-Sep-16 12:10N 38°55' E 121°56'2 0.2
2014-Sep-15 22:22N 38°57' E 121°56'6 7.8
2014-Sep-15 21:33N 38°51' E 121°55'1212.0
2014-Sep-15 20:33N 38°41' E 121°47'1615.7
2014-Sep-15 19:32N 38°29' E 121°33'1515.2
2014-Sep-15 18:33N 38°28' E 121°14'1615.6
2014-Sep-15 17:33N 38°32' E 120°55'13616.8
2014-Sep-15 09:28N 38°56' E 118°03'1312.3
2014-Sep-15 08:25N 38°59' E 117°47'0 0.4
2014-Sep-15 07:30N 38°60' E 117°47'0 0.0
2014-Sep-15 06:24N 38°60' E 117°47'0 0.1
2014-Sep-15 05:30N 38°60' E 117°47'0 0.0
2014-Sep-15 04:30N 38°60' E 117°47'0 0.0
2014-Sep-15 03:30N 38°60' E 117°47'0 0.0
2014-Sep-15 02:28N 38°60' E 117°47'0 0.0
2014-Sep-15 01:28N 38°60' E 117°47'0 0.1
2014-Sep-15 00:28N 38°60' E 117°47'0 0.0
2014-Sep-14 23:10N 38°60' E 117°47'0 0.1
2014-Sep-14 22:28N 38°60' E 117°47'0 0.0
2014-Sep-14 21:22N 38°60' E 117°47'0 0.1
2014-Sep-14 20:22N 38°60' E 117°47'0 0.1
2014-Sep-14 19:15N 38°60' E 117°47'0 0.0
2014-Sep-14 18:33N 38°60' E 117°47'0 0.0
2014-Sep-14 15:27N 38°60' E 117°47'0 0.0
2014-Sep-14 13:33N 38°60' E 117°47'0 0.0
2014-Sep-14 12:33N 38°60' E 117°47'0 0.0
2014-Sep-14 11:33N 38°60' E 117°47'7 7.1
2014-Sep-14 10:33N 38°57' E 117°56'9 9.3
2014-Sep-14 09:33N 38°55' E 118°08'17614.7
2014-Sep-13 21:33N 38°15' E 121°47'2318.2
2014-Sep-13 20:16N 38°02' E 122°11'1418.0
2014-Sep-13 19:30N 37°54' E 122°26'1617.3
2014-Sep-13 18:33N 37°42' E 122°39'1716.9
2014-Sep-13 17:32N 37°28' E 122°52'1717.1
2014-Sep-13 16:34N 37°11' E 122°54'1817.7
2014-Sep-13 15:34N 36°53' E 122°54'1917.7
2014-Sep-13 14:29N 36°34' E 122°58'33417.6
2014-Sep-12 19:30N 31°01' E 122°57'1616.9
2014-Sep-12 18:32N 30°45' E 123°02'5317.8
2014-Sep-12 15:32N 29°52' E 122°58'  
Track history (hours):
 
Tides and Currents Weather Stations Pressure Air Temp Water Temp Dewpoint Dewpoint Depression Visibility Wind Speed Wind Dir Waves Ship Positions

Ever Ursula

Last reported at 2014-Sep-21 18:12 UTC. Time now 2014-Sep-22 10:14 UTC.
Position N 29°42' E 122°54'.

Type: Ship (hazmat cat D). MMSI: 357737000.

Date/timePositionNaut miles runAvg speedWind from/ knotsBaromVisibWave heightAir tempDewpointWater temp
2014-Sep-21 18:12N 29°42' E 122°54'1117.6
2014-Sep-21 17:33N 29°42' E 122°40'1717.4
2014-Sep-21 16:33N 29°44' E 122°21'1514.7
2014-Sep-21 15:33N 29°55' E 122°10'7 6.5
2014-Sep-21 14:33N 29°54' E 122°02'0 0.0
2014-Sep-21 12:21N 29°54' E 122°02'0 0.1
2014-Sep-21 11:27N 29°54' E 122°02'0 0.1
2014-Sep-21 10:27N 29°54' E 122°02'0 0.0
2014-Sep-21 08:06N 29°54' E 122°02'0 0.0
2014-Sep-21 07:18N 29°54' E 122°02'0 0.0
2014-Sep-21 06:24N 29°54' E 122°02'0 0.0
2014-Sep-21 03:18N 29°54' E 122°02'0 0.0
2014-Sep-21 02:30N 29°54' E 122°02'0 0.0
2014-Sep-20 23:33N 29°54' E 122°02'8 8.3
2014-Sep-20 22:33N 29°52' E 122°12'1010.4
2014-Sep-20 21:33N 29°45' E 122°20'7 6.6
2014-Sep-20 20:31N 29°44' E 122°27'1111.7
2014-Sep-20 19:33N 29°48' E 122°40'3115.5
2014-Sep-20 17:32N 30°07' E 123°08'  
2014-Sep-18 02:33N 35°57' E 120°37'1514.7
2014-Sep-18 01:33N 36°01' E 120°19'5 0.2
2014-Sep-17 03:33N 36°01' E 120°13'10 9.6
2014-Sep-17 02:33N 36°01' E 120°25'1413.4
2014-Sep-17 01:33N 35°57' E 120°42'9718.7
2014-Sep-16 20:21N 36°30' E 122°35'1719.6
2014-Sep-16 19:30N 36°46' E 122°41'1818.8
2014-Sep-16 18:33N 37°03' E 122°47'1919.1
2014-Sep-16 17:33N 37°22' E 122°47'1818.3
2014-Sep-16 16:33N 37°39' E 122°39'2119.3
2014-Sep-16 15:28N 37°58' E 122°27'4419.7
2014-Sep-16 13:14N 38°39' E 122°05'1816.9
2014-Sep-16 12:10N 38°55' E 121°56'2 0.2
2014-Sep-15 22:22N 38°57' E 121°56'6 7.8
2014-Sep-15 21:33N 38°51' E 121°55'1212.0
2014-Sep-15 20:33N 38°41' E 121°47'1615.7
2014-Sep-15 19:32N 38°29' E 121°33'1515.2
2014-Sep-15 18:33N 38°28' E 121°14'1615.6
2014-Sep-15 17:33N 38°32' E 120°55'13616.8
2014-Sep-15 09:28N 38°56' E 118°03'1312.3
2014-Sep-15 08:25N 38°59' E 117°47'0 0.4
2014-Sep-15 07:30N 38°60' E 117°47'0 0.0
2014-Sep-15 06:24N 38°60' E 117°47'0 0.1
2014-Sep-15 05:30N 38°60' E 117°47'0 0.0
2014-Sep-15 04:30N 38°60' E 117°47'0 0.0
2014-Sep-15 03:30N 38°60' E 117°47'0 0.0
2014-Sep-15 02:28N 38°60' E 117°47'0 0.0
2014-Sep-15 01:28N 38°60' E 117°47'0 0.1
2014-Sep-15 00:28N 38°60' E 117°47'0 0.0
2014-Sep-14 23:10N 38°60' E 117°47'0 0.1
2014-Sep-14 22:28N 38°60' E 117°47'0 0.0
2014-Sep-14 21:22N 38°60' E 117°47'0 0.1
2014-Sep-14 20:22N 38°60' E 117°47'0 0.1
2014-Sep-14 19:15N 38°60' E 117°47'0 0.0
2014-Sep-14 18:33N 38°60' E 117°47'0 0.0
2014-Sep-14 15:27N 38°60' E 117°47'0 0.0
2014-Sep-14 13:33N 38°60' E 117°47'0 0.0
2014-Sep-14 12:33N 38°60' E 117°47'0 0.0
2014-Sep-14 11:33N 38°60' E 117°47'7 7.1
2014-Sep-14 10:33N 38°57' E 117°56'9 9.3
2014-Sep-14 09:33N 38°55' E 118°08'17614.7
2014-Sep-13 21:33N 38°15' E 121°47'2318.2
2014-Sep-13 20:16N 38°02' E 122°11'1418.0
2014-Sep-13 19:30N 37°54' E 122°26'1617.3
2014-Sep-13 18:33N 37°42' E 122°39'1716.9
2014-Sep-13 17:32N 37°28' E 122°52'1717.1
2014-Sep-13 16:34N 37°11' E 122°54'1817.7
2014-Sep-13 15:34N 36°53' E 122°54'1917.7
2014-Sep-13 14:29N 36°34' E 122°58'33417.6
2014-Sep-12 19:30N 31°01' E 122°57'1616.9
2014-Sep-12 18:32N 30°45' E 123°02'5317.8
2014-Sep-12 15:32N 29°52' E 122°58'  

Dump ship's entire track history